createdAt,value
2019-03-05T00:01:51.570Z,6.17
2019-03-05T00:04:17.847Z,5.73
2019-03-05T00:06:44.043Z,4.97
2019-03-05T00:09:12.181Z,6.23
2019-03-05T00:11:38.348Z,6.23
2019-03-05T00:14:04.644Z,6.20
2019-03-05T00:16:30.916Z,5.60
2019-03-05T00:18:57.128Z,6.10
2019-03-05T00:21:23.322Z,6.10
2019-03-05T00:23:52.488Z,6.23
2019-03-05T00:26:31.047Z,6.13
2019-03-05T00:29:23.825Z,5.60
2019-03-05T00:31:50.127Z,6.20
2019-03-05T00:34:23.171Z,5.80
2019-03-05T00:36:55.711Z,6.27
2019-03-05T00:39:34.709Z,6.27
2019-03-05T00:42:24.251Z,6.30
2019-03-05T00:44:59.957Z,6.10
2019-03-05T00:47:47.537Z,6.03
2019-03-05T00:50:23.255Z,6.40
2019-03-05T00:53:02.054Z,6.53
2019-03-05T00:55:40.688Z,6.30
2019-03-05T00:58:16.465Z,6.27
2019-03-05T01:00:52.090Z,5.90
2019-03-05T01:03:55.257Z,5.23
2019-03-05T01:06:25.494Z,6.47
2019-03-05T01:08:54.163Z,6.10
2019-03-05T01:11:21.284Z,4.70
2019-03-05T01:13:47.547Z,6.70
2019-03-05T01:16:15.814Z,6.30
2019-03-05T01:18:42.136Z,6.10
2019-03-05T01:21:08.413Z,7.07
2019-03-05T01:23:34.581Z,6.73
2019-03-05T01:26:00.779Z,6.53
2019-03-05T01:28:26.937Z,6.73
2019-03-05T01:30:55.011Z,6.57
2019-03-05T01:33:21.617Z,6.97
2019-03-05T01:36:06.303Z,6.47
2019-03-05T01:38:34.421Z,6.63
2019-03-05T01:41:02.497Z,7.50
2019-03-05T01:43:28.769Z,7.07
2019-03-05T01:45:54.965Z,6.87
2019-03-05T01:48:21.234Z,6.93
2019-03-05T01:50:47.396Z,7.00
2019-03-05T01:53:13.583Z,6.13
2019-03-05T01:55:39.760Z,5.77
2019-03-05T01:58:05.955Z,5.43
2019-03-05T02:00:32.344Z,5.93
2019-03-05T02:02:58.514Z,6.23
2019-03-05T02:05:24.696Z,6.43
2019-03-05T02:07:51.513Z,6.13
2019-03-05T02:10:20.967Z,6.40
2019-03-05T02:12:47.234Z,6.50
2019-03-05T02:15:13.933Z,6.57
2019-03-05T02:17:40.108Z,6.77
2019-03-05T02:20:09.885Z,6.40
2019-03-05T02:22:36.192Z,6.10
2019-03-05T02:25:26.753Z,6.43
2019-03-05T02:28:11.764Z,5.57
2019-03-05T02:31:07.406Z,5.90
2019-03-05T02:33:40.465Z,5.23
2019-03-05T02:36:19.247Z,5.80
2019-03-05T02:39:22.620Z,5.47
2019-03-05T02:41:58.467Z,6.20
2019-03-05T02:44:31.275Z,5.00
2019-03-05T02:47:23.647Z,6.40
2019-03-05T02:49:56.297Z,5.50
2019-03-05T02:52:47.473Z,5.63
2019-03-05T02:55:32.337Z,5.20
2019-03-05T02:57:58.089Z,5.13
2019-03-05T03:00:26.152Z,6.20
2019-03-05T03:02:54.256Z,5.83
2019-03-05T03:05:24.945Z,6.10
2019-03-05T03:07:51.113Z,5.67
2019-03-05T03:10:21.623Z,5.33
2019-03-05T03:12:48.063Z,5.67
2019-03-05T03:15:14.229Z,5.33
2019-03-05T03:17:40.539Z,5.57
2019-03-05T03:20:12.772Z,5.07
2019-03-05T03:22:39.044Z,5.53
2019-03-05T03:25:08.844Z,4.90
2019-03-05T03:27:35.013Z,5.37
2019-03-05T03:30:01.379Z,5.33
2019-03-05T03:32:27.585Z,5.30
2019-03-05T03:34:53.728Z,5.93
2019-03-05T03:37:19.890Z,5.97
2019-03-05T03:39:46.101Z,5.37
2019-03-05T03:42:12.260Z,5.70
2019-03-05T03:44:38.416Z,5.63
2019-03-05T03:47:04.614Z,4.83
2019-03-05T03:49:30.788Z,5.37
2019-03-05T03:51:57.046Z,6.00
2019-03-05T03:54:23.250Z,4.93
2019-03-05T03:56:49.614Z,5.67
2019-03-05T03:59:15.766Z,4.97
2019-03-05T04:01:41.969Z,4.77
2019-03-05T04:04:08.136Z,5.10
2019-03-05T04:06:34.306Z,5.80
2019-03-05T04:09:00.488Z,4.73
2019-03-05T04:11:26.656Z,5.70
2019-03-05T04:13:52.829Z,6.17
2019-03-05T04:16:19.063Z,6.40
2019-03-05T04:18:45.238Z,7.07
2019-03-05T04:21:11.504Z,5.77
2019-03-05T04:23:37.714Z,5.57
2019-03-05T04:26:03.871Z,5.90
2019-03-05T04:28:30.047Z,6.07
2019-03-05T04:30:56.401Z,5.73
2019-03-05T04:33:22.606Z,5.10
2019-03-05T04:35:48.756Z,5.77
2019-03-05T04:38:14.979Z,6.03
2019-03-05T04:40:41.131Z,6.30
2019-03-05T04:43:07.299Z,6.60
2019-03-05T04:45:40.395Z,7.47
2019-03-05T04:48:06.560Z,7.70
2019-03-05T04:50:34.624Z,6.83
2019-03-05T04:53:00.816Z,7.97
2019-03-05T04:55:26.980Z,6.57
2019-03-05T04:57:53.138Z,7.27
2019-03-05T05:00:19.538Z,6.13
2019-03-05T05:02:45.710Z,6.37
2019-03-05T05:05:11.871Z,5.03
2019-03-05T05:07:38.080Z,5.47
2019-03-05T05:10:06.660Z,5.20
2019-03-05T05:12:32.844Z,4.93
2019-03-05T05:14:59.042Z,5.77
2019-03-05T05:17:25.363Z,5.37
2019-03-05T05:19:51.597Z,5.40
2019-03-05T05:22:17.839Z,6.10
2019-03-05T05:24:44.004Z,6.13
2019-03-05T05:27:10.178Z,5.27
2019-03-05T05:29:36.382Z,6.27
2019-03-05T05:32:02.561Z,5.53
2019-03-05T05:34:28.739Z,6.17
2019-03-05T05:36:55.048Z,5.77
2019-03-05T05:39:58.212Z,6.07
2019-03-05T05:42:24.412Z,5.33
2019-03-05T05:44:50.686Z,5.07
2019-03-05T05:47:16.950Z,5.03
2019-03-05T05:49:43.144Z,5.80
2019-03-05T05:52:09.306Z,5.97
2019-03-05T05:54:35.567Z,6.07
2019-03-05T05:57:01.774Z,6.70
2019-03-05T05:59:27.928Z,5.47
2019-03-05T06:01:54.086Z,5.40
2019-03-05T06:04:20.295Z,4.93
2019-03-05T06:06:46.454Z,6.00
2019-03-05T06:09:12.719Z,6.30
2019-03-05T06:11:38.935Z,11.80
2019-03-05T06:14:05.095Z,8.50
2019-03-05T06:16:31.282Z,7.27
2019-03-05T06:18:58.523Z,5.63
2019-03-05T06:21:25.136Z,11.00
2019-03-05T06:23:51.291Z,7.70
2019-03-05T06:26:17.483Z,9.97
2019-03-05T06:28:43.644Z,10.27
2019-03-05T06:31:09.812Z,6.70
2019-03-05T06:33:36.007Z,12.23
2019-03-05T06:36:02.172Z,17.87
2019-03-05T06:38:28.332Z,8.73
2019-03-05T06:40:54.535Z,11.73
2019-03-05T06:43:20.807Z,17.60
2019-03-05T06:45:46.968Z,28.40
2019-03-05T06:48:13.156Z,12.17
2019-03-05T06:50:39.375Z,18.23
2019-03-05T06:53:05.682Z,10.73
2019-03-05T06:55:31.914Z,6.37
2019-03-05T06:57:58.036Z,6.97
2019-03-05T07:00:30.153Z,9.20
2019-03-05T07:02:56.446Z,10.80
2019-03-05T07:06:00.055Z,13.13
2019-03-05T07:08:26.250Z,12.90
2019-03-05T07:11:11.389Z,8.93
2019-03-05T07:13:37.601Z,9.60
2019-03-05T07:16:16.565Z,8.50
2019-03-05T07:18:45.755Z,9.83
2019-03-05T07:21:32.127Z,7.03
2019-03-05T07:24:20.080Z,7.83
2019-03-05T07:26:46.340Z,9.00
2019-03-05T07:29:12.495Z,9.53
2019-03-05T07:31:38.798Z,9.33
2019-03-05T07:34:07.017Z,10.77
2019-03-05T07:36:33.180Z,9.97
2019-03-05T07:38:59.500Z,12.33
2019-03-05T07:41:25.661Z,17.57
2019-03-05T07:43:51.820Z,22.97
2019-03-05T07:46:18.011Z,18.50
2019-03-05T07:48:44.177Z,14.80
2019-03-05T07:51:10.338Z,12.43
2019-03-05T07:53:36.541Z,15.77
2019-03-05T07:56:02.901Z,12.10
2019-03-05T07:58:29.061Z,10.53
2019-03-05T08:00:55.252Z,10.10
2019-03-05T08:03:21.409Z,10.30
2019-03-05T08:05:47.760Z,10.60
2019-03-05T08:08:51.196Z,8.73
2019-03-05T08:11:17.361Z,9.57
2019-03-05T08:14:05.501Z,9.67
2019-03-05T08:16:31.761Z,9.77
2019-03-05T08:18:57.928Z,11.43
2019-03-05T08:21:24.137Z,11.43
2019-03-05T08:23:50.298Z,7.87
2019-03-05T08:26:16.457Z,9.77
2019-03-05T08:28:42.756Z,10.60
2019-03-05T08:31:09.215Z,11.50
2019-03-05T08:33:35.376Z,8.47
2019-03-05T08:36:01.582Z,8.80
2019-03-05T08:38:27.748Z,8.00
2019-03-05T08:40:54.385Z,7.00
2019-03-05T08:43:20.577Z,5.43
2019-03-05T08:45:46.805Z,4.60
2019-03-05T08:48:12.989Z,5.67
2019-03-05T08:50:39.201Z,4.27
2019-03-05T08:53:05.355Z,4.90
2019-03-05T08:55:31.525Z,5.00
2019-03-05T08:57:57.696Z,4.60
2019-03-05T09:00:23.851Z,4.50
2019-03-05T09:02:50.016Z,4.13
2019-03-05T09:05:18.110Z,3.97
2019-03-05T09:07:44.771Z,3.80
2019-03-05T09:10:18.329Z,4.03
2019-03-05T09:12:44.628Z,4.03
2019-03-05T09:15:16.836Z,4.60
2019-03-05T09:17:43.195Z,4.23
2019-03-05T09:20:12.391Z,3.67
2019-03-05T09:22:39.037Z,3.30
2019-03-05T09:25:12.233Z,2.60
2019-03-05T09:27:38.526Z,3.47
2019-03-05T09:30:22.073Z,3.10
2019-03-05T09:32:48.676Z,2.90
2019-03-05T09:35:15.860Z,3.90
2019-03-05T09:37:42.316Z,3.83
2019-03-05T09:40:11.728Z,4.17
2019-03-05T09:42:40.139Z,3.07
2019-03-05T09:45:09.655Z,3.97
2019-03-05T09:47:35.988Z,3.93
2019-03-05T09:50:05.151Z,3.37
2019-03-05T09:52:31.314Z,3.47
2019-03-05T09:54:57.619Z,3.17
2019-03-05T09:57:23.887Z,3.40
2019-03-05T09:59:50.149Z,3.50
2019-03-05T10:02:16.355Z,3.60
2019-03-05T10:04:42.622Z,2.87
2019-03-05T10:07:18.494Z,3.60
2019-03-05T10:09:36.967Z,3.20
2019-03-05T10:12:03.133Z,2.50
2019-03-05T10:14:29.403Z,2.80
2019-03-05T10:16:55.612Z,2.20
2019-03-05T10:19:21.770Z,3.80
2019-03-05T10:21:48.176Z,2.70
2019-03-05T10:24:14.476Z,3.43
2019-03-05T10:26:40.695Z,3.57
2019-03-05T10:29:06.987Z,3.67
2019-03-05T10:31:33.418Z,4.20
2019-03-05T10:33:59.570Z,4.13
2019-03-05T10:36:25.741Z,4.07
2019-03-05T10:38:57.163Z,3.83
2019-03-05T10:41:20.115Z,4.23
2019-03-05T10:43:46.271Z,3.73
2019-03-05T10:46:12.981Z,4.07
2019-03-05T10:48:39.141Z,4.53
2019-03-05T10:51:05.304Z,5.70
2019-03-05T10:53:32.201Z,2.77
2019-03-05T10:55:58.368Z,3.80
2019-03-05T10:58:33.426Z,3.87
2019-03-05T11:00:54.595Z,3.93
2019-03-05T11:03:23.471Z,3.90
2019-03-05T11:05:50.928Z,4.10
2019-03-05T11:08:19.222Z,4.07
2019-03-05T11:10:45.485Z,3.37
2019-03-05T11:13:12.043Z,3.67
2019-03-05T11:15:38.843Z,3.73
2019-03-05T11:18:06.704Z,3.70
2019-03-05T11:20:33.379Z,2.80
2019-03-05T11:22:59.574Z,3.63
2019-03-05T11:25:25.857Z,3.07
2019-03-05T11:27:52.019Z,4.47
2019-03-05T11:30:35.325Z,4.67
2019-03-05T11:32:52.289Z,4.40
2019-03-05T11:35:21.455Z,4.47
2019-03-05T11:37:47.762Z,4.47
2019-03-05T11:40:21.220Z,3.37
2019-03-05T11:42:48.495Z,4.33
2019-03-05T11:45:50.165Z,4.37
2019-03-05T11:48:16.437Z,2.50
2019-03-05T11:50:43.104Z,3.93
2019-03-05T11:53:09.302Z,3.70
2019-03-05T11:55:35.449Z,2.97
2019-03-05T11:58:01.617Z,4.17
2019-03-05T12:00:47.478Z,4.57
2019-03-05T12:03:13.744Z,4.10
2019-03-05T12:05:39.919Z,4.67
2019-03-05T12:08:06.118Z,4.57
2019-03-05T12:10:32.277Z,3.37
2019-03-05T12:12:58.443Z,3.00
2019-03-05T12:15:26.848Z,3.73
2019-03-05T12:17:53.000Z,3.87
2019-03-05T12:20:19.156Z,4.33
2019-03-05T12:22:45.344Z,4.53
2019-03-05T12:25:17.632Z,3.20
2019-03-05T12:27:44.094Z,3.37
2019-03-05T12:30:13.954Z,4.63
2019-03-05T12:32:40.107Z,3.63
2019-03-05T12:35:08.574Z,4.10
2019-03-05T12:37:34.774Z,4.20
2019-03-05T12:40:00.941Z,3.97
2019-03-05T12:42:27.217Z,4.03
2019-03-05T12:44:53.410Z,4.93
2019-03-05T12:47:19.582Z,4.87
2019-03-05T12:49:45.841Z,4.20
2019-03-05T12:52:12.036Z,3.87
2019-03-05T12:54:38.205Z,3.70
2019-03-05T12:57:04.486Z,4.00
2019-03-05T12:59:30.673Z,4.60
2019-03-05T13:01:56.832Z,3.27
2019-03-05T13:04:22.998Z,4.50
2019-03-05T13:06:49.196Z,4.30
2019-03-05T13:09:17.876Z,4.60
2019-03-05T13:11:46.594Z,4.37
2019-03-05T13:14:12.357Z,4.87
2019-03-05T13:16:39.447Z,4.40
2019-03-05T13:19:09.517Z,4.67
2019-03-05T13:21:34.947Z,4.80
2019-03-05T13:24:01.104Z,4.30
2019-03-05T13:26:27.268Z,5.77
2019-03-05T13:28:53.472Z,4.47
2019-03-05T13:31:19.782Z,4.00
2019-03-05T13:33:45.935Z,4.00
2019-03-05T13:36:13.466Z,3.00
2019-03-05T13:38:41.835Z,3.27
2019-03-05T13:41:07.869Z,3.70
2019-03-05T13:43:34.058Z,4.27
2019-03-05T13:46:00.213Z,2.97
2019-03-05T13:48:32.986Z,3.63
2019-03-05T13:51:19.528Z,3.60
2019-03-05T13:54:00.959Z,4.97
2019-03-05T13:56:55.655Z,3.67
2019-03-05T13:59:41.907Z,5.00
2019-03-05T14:02:08.503Z,4.40
2019-03-05T14:04:38.269Z,4.80
2019-03-05T14:07:23.354Z,4.87
2019-03-05T14:09:50.579Z,4.80
2019-03-05T14:12:16.793Z,4.10
2019-03-05T14:14:43.035Z,4.17
2019-03-05T14:17:13.767Z,3.87
2019-03-05T14:19:39.924Z,3.50
2019-03-05T14:22:06.247Z,4.53
2019-03-05T14:24:34.383Z,4.00
2019-03-05T14:27:00.908Z,4.73
2019-03-05T14:29:29.291Z,2.27
2019-03-05T14:31:56.355Z,4.20
2019-03-05T14:34:22.615Z,3.90
2019-03-05T14:36:48.857Z,3.70
2019-03-05T14:39:25.997Z,3.07
2019-03-05T14:41:52.315Z,5.80
2019-03-05T14:44:18.541Z,5.50
2019-03-05T14:46:49.130Z,5.73
2019-03-05T14:49:15.329Z,6.67
2019-03-05T14:51:41.483Z,7.07
2019-03-05T14:54:07.650Z,7.07
2019-03-05T14:56:33.955Z,5.60
2019-03-05T14:59:00.125Z,4.07
2019-03-05T15:01:26.253Z,3.33
2019-03-05T15:03:52.455Z,3.33
2019-03-05T15:06:18.825Z,4.27
2019-03-05T15:08:44.987Z,5.00
2019-03-05T15:11:11.321Z,3.60
2019-03-05T15:13:37.623Z,5.20
2019-03-05T15:16:03.877Z,4.80
2019-03-05T15:18:30.118Z,4.33
2019-03-05T15:20:56.303Z,6.70
2019-03-05T15:23:22.477Z,4.60
2019-03-05T15:25:49.100Z,4.80
2019-03-05T15:28:15.268Z,4.20
2019-03-05T15:30:41.587Z,4.47
2019-03-05T15:33:08.779Z,5.93
2019-03-05T15:35:34.945Z,5.97
2019-03-05T15:38:01.119Z,5.13
2019-03-05T15:40:27.687Z,12.57
2019-03-05T15:42:53.850Z,6.17
2019-03-05T15:45:21.503Z,7.03
2019-03-05T15:47:47.706Z,5.67
2019-03-05T15:50:15.963Z,4.97
2019-03-05T15:52:44.156Z,5.23
2019-03-05T15:55:14.548Z,4.77
2019-03-05T15:57:40.710Z,4.30
2019-03-05T16:00:28.852Z,3.97
2019-03-05T16:02:55.069Z,3.47
2019-03-05T16:05:22.126Z,4.53
2019-03-05T16:07:49.305Z,4.43
2019-03-05T16:10:17.218Z,3.10
2019-03-05T16:12:44.450Z,4.60
2019-03-05T16:15:12.442Z,4.90
2019-03-05T16:17:38.597Z,4.83
2019-03-05T16:20:07.961Z,8.57
2019-03-05T16:22:34.162Z,8.27
2019-03-05T16:25:00.319Z,8.27
2019-03-05T16:27:30.072Z,6.47
2019-03-05T16:29:55.715Z,5.10
2019-03-05T16:32:33.500Z,5.33
2019-03-05T16:35:13.649Z,6.30
2019-03-05T16:37:57.730Z,5.57
2019-03-05T16:40:28.928Z,6.13
2019-03-05T16:42:57.011Z,4.53
2019-03-05T16:45:30.723Z,7.10
2019-03-05T16:48:10.560Z,4.93
2019-03-05T16:50:47.746Z,5.80
2019-03-05T16:53:24.654Z,6.20
2019-03-05T16:56:01.326Z,5.40
2019-03-05T17:01:29.090Z,6.23
2019-03-05T17:03:59.974Z,6.30
2019-03-05T17:06:44.856Z,5.27
2019-03-05T17:09:15.961Z,5.33
2019-03-05T17:11:55.673Z,6.73
2019-03-05T17:14:21.832Z,4.30
2019-03-05T17:16:48.089Z,8.20
2019-03-05T17:19:14.393Z,7.93
2019-03-05T17:21:40.553Z,9.43
2019-03-05T17:24:06.748Z,5.30
2019-03-05T17:26:32.935Z,4.47
2019-03-05T17:28:59.092Z,4.30
2019-03-05T17:31:25.243Z,3.93
2019-03-05T17:33:51.450Z,4.33
2019-03-05T17:36:18.104Z,2.90
2019-03-05T17:38:44.262Z,3.70
2019-03-05T17:41:10.453Z,4.27
2019-03-05T17:43:39.387Z,5.83
2019-03-05T17:46:05.670Z,4.47
2019-03-05T17:48:31.856Z,8.03
2019-03-05T17:50:58.011Z,6.00
2019-03-05T17:53:24.170Z,4.83
2019-03-05T17:55:50.363Z,2.37
2019-03-05T17:58:16.547Z,2.70
2019-03-05T18:00:44.611Z,3.13
2019-03-05T18:03:10.809Z,3.20
2019-03-05T18:05:36.967Z,4.90
2019-03-05T18:08:03.624Z,3.63
2019-03-05T18:10:29.870Z,3.53
2019-03-05T18:12:56.027Z,3.27
2019-03-05T18:15:22.203Z,2.83
2019-03-05T18:17:48.494Z,3.27
2019-03-05T18:20:19.491Z,2.83
2019-03-05T18:22:45.953Z,3.53
2019-03-05T18:25:14.148Z,4.00
2019-03-05T18:27:40.733Z,4.03
2019-03-05T18:30:19.735Z,4.23
2019-03-05T18:32:46.074Z,2.87
2019-03-05T18:35:12.947Z,3.43
2019-03-05T18:37:39.248Z,4.00
2019-03-05T18:40:11.423Z,3.80
2019-03-05T18:42:37.580Z,3.07
2019-03-05T18:45:07.362Z,4.30
2019-03-05T18:47:33.977Z,3.40
2019-03-05T18:50:00.287Z,3.33
2019-03-05T18:52:26.530Z,2.33
2019-03-05T18:54:52.699Z,3.05
2019-03-05T18:57:18.846Z,2.77
2019-03-05T18:59:45.039Z,3.30
2019-03-05T19:02:11.413Z,5.70
2019-03-05T19:04:37.582Z,4.07
2019-03-05T19:07:03.895Z,5.20
2019-03-05T19:09:30.054Z,8.83
2019-03-05T19:11:56.332Z,3.50
2019-03-05T19:14:22.653Z,4.03
2019-03-05T19:16:48.809Z,3.90
2019-03-05T19:19:14.976Z,2.50
2019-03-05T19:21:41.177Z,3.50
2019-03-05T19:24:07.344Z,3.60
2019-03-05T19:26:33.507Z,3.23
2019-03-05T19:28:59.724Z,2.47
2019-03-05T19:31:25.887Z,2.70
2019-03-05T19:33:52.041Z,2.37
2019-03-05T19:36:18.237Z,2.73
2019-03-05T19:38:44.455Z,2.87
2019-03-05T19:41:10.712Z,2.40
2019-03-05T19:43:37.014Z,2.77
2019-03-05T19:46:03.277Z,2.90
2019-03-05T19:48:29.442Z,3.07
2019-03-05T19:50:55.750Z,3.10
2019-03-05T19:53:21.910Z,2.90
2019-03-05T19:55:48.181Z,4.53
2019-03-05T19:58:14.395Z,2.63
2019-03-05T20:00:54.352Z,3.57
2019-03-05T20:03:20.560Z,2.80
2019-03-05T20:05:46.716Z,3.13
2019-03-05T20:08:12.884Z,3.17
2019-03-05T20:10:39.083Z,2.90
2019-03-05T20:13:05.247Z,4.00
2019-03-05T20:15:31.416Z,4.73
2019-03-05T20:17:59.113Z,6.33
2019-03-05T20:20:25.605Z,5.90
2019-03-05T20:22:51.974Z,3.97
2019-03-05T20:25:19.749Z,4.00
2019-03-05T20:27:47.816Z,3.10
2019-03-05T20:30:16.489Z,3.13
2019-03-05T20:32:42.782Z,3.07
2019-03-05T20:35:08.948Z,3.37
2019-03-05T20:37:35.108Z,3.33
2019-03-05T20:40:02.833Z,4.27
2019-03-05T20:42:29.317Z,4.60
2019-03-05T20:44:55.485Z,4.07
2019-03-05T20:47:21.790Z,4.17
2019-03-05T20:49:47.955Z,3.87
2019-03-05T20:52:14.124Z,4.13
2019-03-05T20:54:40.328Z,5.20
2019-03-05T20:57:06.589Z,4.30
2019-03-05T20:59:33.053Z,3.93
2019-03-05T21:01:59.359Z,3.80
2019-03-05T21:04:25.535Z,3.60
2019-03-05T21:06:51.698Z,3.50
2019-03-05T21:09:19.499Z,3.97
2019-03-05T21:11:45.672Z,4.23
2019-03-05T21:14:12.335Z,4.33
2019-03-05T21:16:38.547Z,4.20
2019-03-05T21:19:04.716Z,3.87
2019-03-05T21:21:30.892Z,3.80
2019-03-05T21:23:57.193Z,4.20
2019-03-05T21:26:23.353Z,4.07
2019-03-05T21:28:50.326Z,4.43
2019-03-05T21:31:16.545Z,4.13
2019-03-05T21:33:42.722Z,4.40
2019-03-05T21:36:08.880Z,4.20
2019-03-05T21:38:35.086Z,3.90
2019-03-05T21:41:01.462Z,4.43
2019-03-05T21:43:28.028Z,4.77
2019-03-05T21:45:57.831Z,3.93
2019-03-05T21:48:23.995Z,4.60
2019-03-05T21:50:50.156Z,4.50
2019-03-05T21:53:16.439Z,4.03
2019-03-05T21:55:42.696Z,4.37
2019-03-05T21:58:10.071Z,4.57
2019-03-05T22:00:38.083Z,4.00
2019-03-05T22:03:04.749Z,4.80
2019-03-05T22:05:30.915Z,4.80
2019-03-05T22:07:57.100Z,4.93
2019-03-05T22:10:23.268Z,5.83
2019-03-05T22:12:49.945Z,5.13
2019-03-05T22:15:18.639Z,5.53
2019-03-05T22:17:44.789Z,5.20
2019-03-05T22:20:13.560Z,5.43
2019-03-05T22:22:39.772Z,5.43
2019-03-05T22:25:09.227Z,5.53
2019-03-05T22:27:35.504Z,6.37
2019-03-05T22:30:02.210Z,5.37
2019-03-05T22:32:28.375Z,5.47
2019-03-05T22:34:54.647Z,4.90
2019-03-05T22:37:21.820Z,5.30
2019-03-05T22:39:47.985Z,5.47
2019-03-05T22:42:14.504Z,5.63
2019-03-05T22:44:40.702Z,5.53
2019-03-05T22:47:06.885Z,4.73
2019-03-05T22:49:33.051Z,5.83
2019-03-05T22:51:59.258Z,5.30
2019-03-05T22:54:25.431Z,5.53
2019-03-05T22:56:51.614Z,5.70
2019-03-05T22:59:17.812Z,5.93
2019-03-05T23:01:44.590Z,5.47
2019-03-05T23:04:10.956Z,5.73
2019-03-05T23:06:37.554Z,5.33
2019-03-05T23:09:06.824Z,5.30
2019-03-05T23:11:32.988Z,5.73
2019-03-05T23:13:59.197Z,6.80
2019-03-05T23:16:25.471Z,6.53
2019-03-05T23:18:51.628Z,5.40
2019-03-05T23:21:17.939Z,5.80
2019-03-05T23:23:44.113Z,6.07
2019-03-05T23:26:11.079Z,5.57
2019-03-05T23:28:37.579Z,5.07
2019-03-05T23:31:03.946Z,6.00
2019-03-05T23:33:30.108Z,5.77
2019-03-05T23:35:56.313Z,6.20
2019-03-05T23:38:22.584Z,5.90
2019-03-05T23:40:48.847Z,5.67
2019-03-05T23:43:15.082Z,5.97
2019-03-05T23:45:41.246Z,5.33
2019-03-05T23:48:07.409Z,5.97
2019-03-05T23:50:33.599Z,5.83
2019-03-05T23:52:59.768Z,5.70
2019-03-05T23:55:26.326Z,5.53
2019-03-05T23:57:52.537Z,6.10
